首页
METAR-TAF:

METAR-TAF

机场 :

多特蒙德机场

多特蒙德, 德国

纬度: 51-31N, 经度: 007-37E, 海拔: 127米

当前天气观测

该预报发布于27分钟前的02:50 UTC
风速8节,风向东南
温度 2°C
湿度 87%
气压 1012 hPa
能见度10公里或以上

METAR: EDLW 170250Z AUTO 14008KT 9999 // NCD 02/00 Q1012

时间: 04:17 (03:17 UTC)

预报

该预报发布于10小时和17分钟前的17:00 UTC
预报有效从16日的 18点(UTC)到 17日的 18点(UTC)
风速5节,风向
能见度10公里或以上
1500米以下无云,无积雨云
成为
从 16日的 18点(UTC)到 16日的 21点(UTC)
风速3节,风向多变
短暂存在
从 17日的 02点(UTC)到 17日的 10点(UTC)
能見度: 4000
轻雾
几率 30% :
短暂存在
从 17日的 05点(UTC)到 17日的 10点(UTC)
多云层高于600英尺
成为
从 17日的 08点(UTC)到 17日的 11点(UTC)
风速8节,风向北转东北
短暂存在
从 17日的 17点(UTC)到 17日的 18点(UTC)
能見度: 4000
多云层高于1400英尺
小雨

TAF: EDLW 161700Z 1618/1718 18005KT CAVOK BECMG 1618/1621 VRB03KT TEMPO 1702/1710 4000 BR PROB30 TEMPO 1705/1710 BKN006 BECMG 1708/1711 02008KT TEMPO 1717/1718 4000 -RA BKN014

超过4000个机场的气象观测和天气预报(METAR&TAF报告)。

可查询的气象台以黄色和红色小点在地图上表示。

将鼠标移到小点上方,可查看气象台名称。

然后点击查看天气观测和预报。

如需切换地图:点击带黑十字的绿色按钮放大地图;点击带横线的绿色按钮缩小地图;或者点击绿色箭头查看邻近地区的地图。


METAR-TAF: